sensor_id;sensor_type;location;lat;lon;timestamp;temperature;humidity
31619;DHT22;18230;51.502;7.108;2023-04-25T00:02:25;8.30;99.90
31619;DHT22;18230;51.502;7.108;2023-04-25T00:07:25;8.30;99.90
31619;DHT22;18230;51.502;7.108;2023-04-25T00:12:26;8.30;99.90
31619;DHT22;18230;51.502;7.108;2023-04-25T00:17:29;8.20;99.90
31619;DHT22;18230;51.502;7.108;2023-04-25T00:22:30;8.30;99.90
31619;DHT22;18230;51.502;7.108;2023-04-25T00:27:30;8.30;99.90
31619;DHT22;18230;51.502;7.108;2023-04-25T00:32:31;8.40;99.90
31619;DHT22;18230;51.502;7.108;2023-04-25T00:37:32;8.40;99.90
31619;DHT22;18230;51.502;7.108;2023-04-25T00:42:32;8.30;99.90
31619;DHT22;18230;51.502;7.108;2023-04-25T00:47:35;8.40;99.90
31619;DHT22;18230;51.502;7.108;2023-04-25T00:52:38;8.40;99.90
31619;DHT22;18230;51.502;7.108;2023-04-25T00:57:40;8.40;99.90
31619;DHT22;18230;51.502;7.108;2023-04-25T01:02:42;8.30;99.90
31619;DHT22;18230;51.502;7.108;2023-04-25T01:07:43;8.30;99.90
31619;DHT22;18230;51.502;7.108;2023-04-25T01:12:43;8.30;99.90
31619;DHT22;18230;51.502;7.108;2023-04-25T01:17:44;8.30;99.90
31619;DHT22;18230;51.502;7.108;2023-04-25T01:22:45;8.30;99.90
31619;DHT22;18230;51.502;7.108;2023-04-25T01:27:46;8.30;99.90
31619;DHT22;18230;51.502;7.108;2023-04-25T01:32:48;8.30;99.90
31619;DHT22;18230;51.502;7.108;2023-04-25T01:37:50;8.30;99.90
31619;DHT22;18230;51.502;7.108;2023-04-25T01:42:52;8.30;99.90
31619;DHT22;18230;51.502;7.108;2023-04-25T01:47:53;8.30;99.90
31619;DHT22;18230;51.502;7.108;2023-04-25T01:52:54;8.40;99.90
31619;DHT22;18230;51.502;7.108;2023-04-25T01:57:55;8.30;99.90
31619;DHT22;18230;51.502;7.108;2023-04-25T02:02:59;8.20;99.90
31619;DHT22;18230;51.502;7.108;2023-04-25T02:08:00;8.20;99.90
31619;DHT22;18230;51.502;7.108;2023-04-25T02:13:00;8.20;99.90
31619;DHT22;18230;51.502;7.108;2023-04-25T02:18:01;8.20;99.90
31619;DHT22;18230;51.502;7.108;2023-04-25T02:23:03;8.20;99.90
31619;DHT22;18230;51.502;7.108;2023-04-25T02:28:04;8.10;99.90
31619;DHT22;18230;51.502;7.108;2023-04-25T02:33:05;8.00;99.90
31619;DHT22;18230;51.502;7.108;2023-04-25T02:38:05;8.10;99.90
31619;DHT22;18230;51.502;7.108;2023-04-25T02:43:06;8.10;99.90
31619;DHT22;18230;51.502;7.108;2023-04-25T02:48:07;8.20;99.90
31619;DHT22;18230;51.502;7.108;2023-04-25T02:53:08;8.20;99.90
31619;DHT22;18230;51.502;7.108;2023-04-25T02:58:09;8.10;99.90
31619;DHT22;18230;51.502;7.108;2023-04-25T03:03:15;8.00;99.90
31619;DHT22;18230;51.502;7.108;2023-04-25T03:08:18;8.10;99.90
31619;DHT22;18230;51.502;7.108;2023-04-25T03:13:19;8.00;99.90
31619;DHT22;18230;51.502;7.108;2023-04-25T03:18:19;8.10;99.90
31619;DHT22;18230;51.502;7.108;2023-04-25T03:23:20;8.00;99.90
31619;DHT22;18230;51.502;7.108;2023-04-25T03:28:21;8.00;99.90
31619;DHT22;18230;51.502;7.108;2023-04-25T03:33:22;8.00;99.90
31619;DHT22;18230;51.502;7.108;2023-04-25T03:38:23;8.00;99.90
31619;DHT22;18230;51.502;7.108;2023-04-25T03:43:24;8.00;99.90
31619;DHT22;18230;51.502;7.108;2023-04-25T03:48:25;7.90;99.90
31619;DHT22;18230;51.502;7.108;2023-04-25T03:53:26;7.90;99.90
31619;DHT22;18230;51.502;7.108;2023-04-25T03:58:27;7.90;99.90
31619;DHT22;18230;51.502;7.108;2023-04-25T04:03:28;8.00;99.90
31619;DHT22;18230;51.502;7.108;2023-04-25T04:08:28;8.00;99.90
31619;DHT22;18230;51.502;7.108;2023-04-25T04:13:29;8.00;99.90
31619;DHT22;18230;51.502;7.108;2023-04-25T04:18:30;7.90;99.90
31619;DHT22;18230;51.502;7.108;2023-04-25T04:23:31;7.70;99.90
31619;DHT22;18230;51.502;7.108;2023-04-25T04:28:31;7.60;99.90
31619;DHT22;18230;51.502;7.108;2023-04-25T04:33:32;7.50;99.90
31619;DHT22;18230;51.502;7.108;2023-04-25T04:38:33;7.50;99.90
31619;DHT22;18230;51.502;7.108;2023-04-25T04:43:34;7.50;99.90
31619;DHT22;18230;51.502;7.108;2023-04-25T04:48:34;7.40;99.90
31619;DHT22;18230;51.502;7.108;2023-04-25T04:53:35;7.50;99.90
31619;DHT22;18230;51.502;7.108;2023-04-25T04:58:36;7.50;99.90
31619;DHT22;18230;51.502;7.108;2023-04-25T05:03:37;7.60;99.90
31619;DHT22;18230;51.502;7.108;2023-04-25T05:08:37;7.60;99.90
31619;DHT22;18230;51.502;7.108;2023-04-25T05:13:38;7.70;99.90
31619;DHT22;18230;51.502;7.108;2023-04-25T05:18:39;7.70;99.90
31619;DHT22;18230;51.502;7.108;2023-04-25T05:23:40;7.80;99.90
31619;DHT22;18230;51.502;7.108;2023-04-25T05:28:41;7.90;99.90
31619;DHT22;18230;51.502;7.108;2023-04-25T05:33:42;7.80;99.90
31619;DHT22;18230;51.502;7.108;2023-04-25T05:38:43;7.90;99.90
31619;DHT22;18230;51.502;7.108;2023-04-25T05:43:44;7.90;99.90
31619;DHT22;18230;51.502;7.108;2023-04-25T05:48:47;8.00;99.90
31619;DHT22;18230;51.502;7.108;2023-04-25T05:53:48;8.00;99.90
31619;DHT22;18230;51.502;7.108;2023-04-25T05:58:48;8.00;99.90
31619;DHT22;18230;51.502;7.108;2023-04-25T06:03:49;8.20;99.90
31619;DHT22;18230;51.502;7.108;2023-04-25T06:08:51;8.20;99.90
31619;DHT22;18230;51.502;7.108;2023-04-25T06:13:52;8.20;99.90
31619;DHT22;18230;51.502;7.108;2023-04-25T06:18:53;8.20;99.90
31619;DHT22;18230;51.502;7.108;2023-04-25T06:23:53;8.20;99.90
31619;DHT22;18230;51.502;7.108;2023-04-25T06:28:54;8.30;99.90
31619;DHT22;18230;51.502;7.108;2023-04-25T06:33:55;8.40;99.90
31619;DHT22;18230;51.502;7.108;2023-04-25T06:38:56;8.50;99.90
31619;DHT22;18230;51.502;7.108;2023-04-25T06:43:57;8.60;99.90
31619;DHT22;18230;51.502;7.108;2023-04-25T06:48:58;8.70;99.90
31619;DHT22;18230;51.502;7.108;2023-04-25T06:53:59;8.50;99.90
31619;DHT22;18230;51.502;7.108;2023-04-25T06:58:59;8.40;99.90
31619;DHT22;18230;51.502;7.108;2023-04-25T07:04:01;8.40;99.90
31619;DHT22;18230;51.502;7.108;2023-04-25T07:09:02;8.30;99.90
31619;DHT22;18230;51.502;7.108;2023-04-25T07:14:03;8.40;99.90
31619;DHT22;18230;51.502;7.108;2023-04-25T07:19:03;8.60;99.90
31619;DHT22;18230;51.502;7.108;2023-04-25T07:24:04;8.70;99.90
31619;DHT22;18230;51.502;7.108;2023-04-25T07:29:05;8.80;99.90
31619;DHT22;18230;51.502;7.108;2023-04-25T07:34:06;9.00;99.90
31619;DHT22;18230;51.502;7.108;2023-04-25T07:39:07;9.20;99.90
31619;DHT22;18230;51.502;7.108;2023-04-25T07:44:11;9.20;99.90
31619;DHT22;18230;51.502;7.108;2023-04-25T07:49:12;9.30;99.90
31619;DHT22;18230;51.502;7.108;2023-04-25T07:54:14;9.50;99.90
31619;DHT22;18230;51.502;7.108;2023-04-25T07:59:15;9.80;99.90
31619;DHT22;18230;51.502;7.108;2023-04-25T08:04:15;9.70;99.90
31619;DHT22;18230;51.502;7.108;2023-04-25T08:09:16;9.80;99.90
31619;DHT22;18230;51.502;7.108;2023-04-25T08:14:17;10.00;99.90
31619;DHT22;18230;51.502;7.108;2023-04-25T08:19:18;10.20;99.90
31619;DHT22;18230;51.502;7.108;2023-04-25T08:24:18;10.50;99.90
31619;DHT22;18230;51.502;7.108;2023-04-25T08:29:23;10.40;99.90
31619;DHT22;18230;51.502;7.108;2023-04-25T08:34:26;10.30;99.90
31619;DHT22;18230;51.502;7.108;2023-04-25T08:39:28;10.30;99.90
31619;DHT22;18230;51.502;7.108;2023-04-25T08:44:29;10.30;99.90
31619;DHT22;18230;51.502;7.108;2023-04-25T08:49:34;10.40;99.90
31619;DHT22;18230;51.502;7.108;2023-04-25T08:54:36;10.40;99.90
31619;DHT22;18230;51.502;7.108;2023-04-25T08:59:37;10.90;99.90
31619;DHT22;18230;51.502;7.108;2023-04-25T09:04:42;11.20;99.90
31619;DHT22;18230;51.502;7.108;2023-04-25T09:09:43;11.20;99.90
31619;DHT22;18230;51.502;7.108;2023-04-25T09:15:05;11.20;99.90
31619;DHT22;18230;51.502;7.108;2023-04-25T09:20:12;11.10;99.90
31619;DHT22;18230;51.502;7.108;2023-04-25T09:25:14;11.10;99.90
31619;DHT22;18230;51.502;7.108;2023-04-25T09:30:16;11.20;99.90
31619;DHT22;18230;51.502;7.108;2023-04-25T09:35:24;11.40;99.90
31619;DHT22;18230;51.502;7.108;2023-04-25T09:40:26;11.50;99.90
31619;DHT22;18230;51.502;7.108;2023-04-25T09:45:29;11.60;99.90
31619;DHT22;18230;51.502;7.108;2023-04-25T09:50:31;11.60;99.90
31619;DHT22;18230;51.502;7.108;2023-04-25T09:55:34;11.20;99.90
31619;DHT22;18230;51.502;7.108;2023-04-25T10:00:35;11.50;99.90
31619;DHT22;18230;51.502;7.108;2023-04-25T10:05:36;11.70;99.90
31619;DHT22;18230;51.502;7.108;2023-04-25T10:10:40;12.10;99.90
31619;DHT22;18230;51.502;7.108;2023-04-25T10:15:41;12.20;99.90
31619;DHT22;18230;51.502;7.108;2023-04-25T10:20:42;11.90;99.90
31619;DHT22;18230;51.502;7.108;2023-04-25T10:25:43;11.60;99.90
31619;DHT22;18230;51.502;7.108;2023-04-25T10:31:16;11.60;99.90
31619;DHT22;18230;51.502;7.108;2023-04-25T10:36:19;11.50;99.90
31619;DHT22;18230;51.502;7.108;2023-04-25T10:41:22;11.40;99.90
31619;DHT22;18230;51.502;7.108;2023-04-25T10:46:24;11.40;99.90
31619;DHT22;18230;51.502;7.108;2023-04-25T10:51:31;11.10;99.90
31619;DHT22;18230;51.502;7.108;2023-04-25T10:56:36;10.90;99.90
31619;DHT22;18230;51.502;7.108;2023-04-25T11:01:40;10.90;99.90
31619;DHT22;18230;51.502;7.108;2023-04-25T11:12:00;10.40;99.90
31619;DHT22;18230;51.502;7.108;2023-04-25T11:17:01;10.20;99.90
31619;DHT22;18230;51.502;7.108;2023-04-25T11:22:06;10.40;99.90
31619;DHT22;18230;51.502;7.108;2023-04-25T11:27:08;10.40;99.90
31619;DHT22;18230;51.502;7.108;2023-04-25T11:32:09;10.60;99.90
31619;DHT22;18230;51.502;7.108;2023-04-25T11:37:10;10.80;99.90
31619;DHT22;18230;51.502;7.108;2023-04-25T11:42:13;10.90;99.90
31619;DHT22;18230;51.502;7.108;2023-04-25T11:47:13;11.10;99.90
31619;DHT22;18230;51.502;7.108;2023-04-25T11:52:14;11.30;99.90
31619;DHT22;18230;51.502;7.108;2023-04-25T11:57:19;11.60;99.90
31619;DHT22;18230;51.502;7.108;2023-04-25T12:02:26;11.80;99.90
31619;DHT22;18230;51.502;7.108;2023-04-25T12:07:30;11.80;99.90
31619;DHT22;18230;51.502;7.108;2023-04-25T12:12:34;12.00;99.90
31619;DHT22;18230;51.502;7.108;2023-04-25T12:17:35;11.90;99.90
31619;DHT22;18230;51.502;7.108;2023-04-25T12:22:39;12.00;99.90
31619;DHT22;18230;51.502;7.108;2023-04-25T12:27:41;12.20;99.90
31619;DHT22;18230;51.502;7.108;2023-04-25T12:32:42;12.10;99.90
31619;DHT22;18230;51.502;7.108;2023-04-25T12:37:43;12.20;99.90
31619;DHT22;18230;51.502;7.108;2023-04-25T12:42:43;12.10;99.90
31619;DHT22;18230;51.502;7.108;2023-04-25T12:47:44;11.90;99.90
31619;DHT22;18230;51.502;7.108;2023-04-25T12:52:45;11.80;99.90
31619;DHT22;18230;51.502;7.108;2023-04-25T12:57:46;11.60;99.90
31619;DHT22;18230;51.502;7.108;2023-04-25T13:02:47;11.30;99.90
31619;DHT22;18230;51.502;7.108;2023-04-25T13:07:47;11.20;99.90
31619;DHT22;18230;51.502;7.108;2023-04-25T13:12:48;11.20;99.90
31619;DHT22;18230;51.502;7.108;2023-04-25T13:17:49;11.30;99.90
31619;DHT22;18230;51.502;7.108;2023-04-25T13:22:50;11.20;99.90
31619;DHT22;18230;51.502;7.108;2023-04-25T13:27:51;11.10;99.90
31619;DHT22;18230;51.502;7.108;2023-04-25T13:32:51;11.20;99.90
31619;DHT22;18230;51.502;7.108;2023-04-25T13:37:53;11.20;99.90
31619;DHT22;18230;51.502;7.108;2023-04-25T13:42:54;11.30;99.90
31619;DHT22;18230;51.502;7.108;2023-04-25T13:47:55;11.70;99.90
31619;DHT22;18230;51.502;7.108;2023-04-25T13:52:56;12.20;99.90
31619;DHT22;18230;51.502;7.108;2023-04-25T13:57:57;12.20;99.90
31619;DHT22;18230;51.502;7.108;2023-04-25T14:02:58;12.40;99.90
31619;DHT22;18230;51.502;7.108;2023-04-25T14:07:58;12.60;99.90
31619;DHT22;18230;51.502;7.108;2023-04-25T14:13:00;13.00;99.90
31619;DHT22;18230;51.502;7.108;2023-04-25T14:18:01;13.40;99.90
31619;DHT22;18230;51.502;7.108;2023-04-25T14:23:02;13.70;99.90
31619;DHT22;18230;51.502;7.108;2023-04-25T14:28:03;13.50;99.90
31619;DHT22;18230;51.502;7.108;2023-04-25T14:33:04;13.60;97.80
31619;DHT22;18230;51.502;7.108;2023-04-25T14:38:05;13.50;97.60
31619;DHT22;18230;51.502;7.108;2023-04-25T14:43:06;13.60;94.60
31619;DHT22;18230;51.502;7.108;2023-04-25T14:48:07;13.40;94.20
31619;DHT22;18230;51.502;7.108;2023-04-25T14:53:08;13.20;95.10
31619;DHT22;18230;51.502;7.108;2023-04-25T14:58:08;13.10;96.80
31619;DHT22;18230;51.502;7.108;2023-04-25T15:03:10;12.70;99.90
31619;DHT22;18230;51.502;7.108;2023-04-25T15:08:13;12.40;99.90
31619;DHT22;18230;51.502;7.108;2023-04-25T15:13:14;12.50;99.90
31619;DHT22;18230;51.502;7.108;2023-04-25T15:18:15;13.00;99.90
31619;DHT22;18230;51.502;7.108;2023-04-25T15:23:17;13.40;99.90
31619;DHT22;18230;51.502;7.108;2023-04-25T15:28:18;13.80;99.90
31619;DHT22;18230;51.502;7.108;2023-04-25T15:33:21;14.00;99.90
31619;DHT22;18230;51.502;7.108;2023-04-25T15:38:22;14.40;99.90
31619;DHT22;18230;51.502;7.108;2023-04-25T15:43:22;13.70;99.90
31619;DHT22;18230;51.502;7.108;2023-04-25T15:48:24;13.40;99.90
31619;DHT22;18230;51.502;7.108;2023-04-25T15:53:28;13.30;99.90
31619;DHT22;18230;51.502;7.108;2023-04-25T15:58:28;13.50;99.90
31619;DHT22;18230;51.502;7.108;2023-04-25T16:03:30;14.00;99.90
31619;DHT22;18230;51.502;7.108;2023-04-25T16:08:31;14.00;98.40
31619;DHT22;18230;51.502;7.108;2023-04-25T16:13:35;13.50;99.90
31619;DHT22;18230;51.502;7.108;2023-04-25T16:18:36;13.50;99.90
31619;DHT22;18230;51.502;7.108;2023-04-25T16:23:36;13.40;99.90
31619;DHT22;18230;51.502;7.108;2023-04-25T16:28:37;13.20;99.90
31619;DHT22;18230;51.502;7.108;2023-04-25T16:33:38;13.10;99.90
31619;DHT22;18230;51.502;7.108;2023-04-25T16:38:38;13.10;99.90
31619;DHT22;18230;51.502;7.108;2023-04-25T16:43:39;13.30;99.90
31619;DHT22;18230;51.502;7.108;2023-04-25T16:48:40;13.30;99.90
31619;DHT22;18230;51.502;7.108;2023-04-25T16:53:42;13.00;99.90
31619;DHT22;18230;51.502;7.108;2023-04-25T16:58:43;12.70;99.90
31619;DHT22;18230;51.502;7.108;2023-04-25T17:03:43;12.30;99.90
31619;DHT22;18230;51.502;7.108;2023-04-25T17:08:44;12.30;99.90
31619;DHT22;18230;51.502;7.108;2023-04-25T17:13:45;12.10;99.90
31619;DHT22;18230;51.502;7.108;2023-04-25T17:18:46;12.00;99.90
31619;DHT22;18230;51.502;7.108;2023-04-25T17:23:46;12.30;99.90
31619;DHT22;18230;51.502;7.108;2023-04-25T17:28:47;12.50;99.90
31619;DHT22;18230;51.502;7.108;2023-04-25T17:33:48;12.80;99.90
31619;DHT22;18230;51.502;7.108;2023-04-25T17:38:50;12.80;99.90
31619;DHT22;18230;51.502;7.108;2023-04-25T17:43:51;12.80;99.90
31619;DHT22;18230;51.502;7.108;2023-04-25T17:48:52;12.40;99.90
31619;DHT22;18230;51.502;7.108;2023-04-25T17:53:53;12.40;99.90
31619;DHT22;18230;51.502;7.108;2023-04-25T17:58:54;12.50;99.90
31619;DHT22;18230;51.502;7.108;2023-04-25T18:03:55;12.30;99.90
31619;DHT22;18230;51.502;7.108;2023-04-25T18:08:55;12.20;99.90
31619;DHT22;18230;51.502;7.108;2023-04-25T18:13:56;12.00;99.90
31619;DHT22;18230;51.502;7.108;2023-04-25T18:18:57;11.90;99.90
31619;DHT22;18230;51.502;7.108;2023-04-25T18:24:05;11.70;99.90
31619;DHT22;18230;51.502;7.108;2023-04-25T18:29:10;11.50;99.90
31619;DHT22;18230;51.502;7.108;2023-04-25T18:34:11;11.20;99.90
31619;DHT22;18230;51.502;7.108;2023-04-25T18:39:11;11.30;99.90
31619;DHT22;18230;51.502;7.108;2023-04-25T18:44:12;11.00;99.90
31619;DHT22;18230;51.502;7.108;2023-04-25T18:49:13;10.70;99.90
31619;DHT22;18230;51.502;7.108;2023-04-25T18:54:14;10.50;99.90
31619;DHT22;18230;51.502;7.108;2023-04-25T18:59:14;10.40;99.90
31619;DHT22;18230;51.502;7.108;2023-04-25T19:04:16;10.40;99.90
31619;DHT22;18230;51.502;7.108;2023-04-25T19:09:17;10.40;99.90
31619;DHT22;18230;51.502;7.108;2023-04-25T19:14:18;10.30;99.90
31619;DHT22;18230;51.502;7.108;2023-04-25T19:19:18;10.30;99.90
31619;DHT22;18230;51.502;7.108;2023-04-25T19:24:19;10.20;99.90
31619;DHT22;18230;51.502;7.108;2023-04-25T19:29:20;10.20;99.90
31619;DHT22;18230;51.502;7.108;2023-04-25T19:34:20;10.10;99.90
31619;DHT22;18230;51.502;7.108;2023-04-25T19:39:21;10.00;99.90
31619;DHT22;18230;51.502;7.108;2023-04-25T19:44:23;9.80;99.90
31619;DHT22;18230;51.502;7.108;2023-04-25T19:49:24;9.50;99.90
31619;DHT22;18230;51.502;7.108;2023-04-25T19:54:26;9.40;99.90
31619;DHT22;18230;51.502;7.108;2023-04-25T19:59:27;9.50;99.90
31619;DHT22;18230;51.502;7.108;2023-04-25T20:04:27;9.50;99.90
31619;DHT22;18230;51.502;7.108;2023-04-25T20:09:28;9.40;99.90
31619;DHT22;18230;51.502;7.108;2023-04-25T20:14:29;9.30;99.90
31619;DHT22;18230;51.502;7.108;2023-04-25T20:19:30;9.30;99.90
31619;DHT22;18230;51.502;7.108;2023-04-25T20:24:32;9.30;99.90
31619;DHT22;18230;51.502;7.108;2023-04-25T20:29:34;9.30;99.90
31619;DHT22;18230;51.502;7.108;2023-04-25T20:34:35;9.30;99.90
31619;DHT22;18230;51.502;7.108;2023-04-25T20:39:36;9.20;99.90
31619;DHT22;18230;51.502;7.108;2023-04-25T20:44:38;9.20;99.90
31619;DHT22;18230;51.502;7.108;2023-04-25T20:49:40;9.10;99.90
31619;DHT22;18230;51.502;7.108;2023-04-25T20:54:41;9.00;99.90
31619;DHT22;18230;51.502;7.108;2023-04-25T20:59:42;9.00;99.90
31619;DHT22;18230;51.502;7.108;2023-04-25T21:04:42;8.90;99.90
31619;DHT22;18230;51.502;7.108;2023-04-25T21:09:46;8.80;99.90
31619;DHT22;18230;51.502;7.108;2023-04-25T21:14:47;8.70;99.90
31619;DHT22;18230;51.502;7.108;2023-04-25T21:19:47;8.60;99.90
31619;DHT22;18230;51.502;7.108;2023-04-25T21:24:48;8.50;99.90
31619;DHT22;18230;51.502;7.108;2023-04-25T21:29:50;8.40;99.90
31619;DHT22;18230;51.502;7.108;2023-04-25T21:34:50;8.30;99.90
31619;DHT22;18230;51.502;7.108;2023-04-25T21:39:51;8.20;99.90
31619;DHT22;18230;51.502;7.108;2023-04-25T21:44:52;8.10;99.90
31619;DHT22;18230;51.502;7.108;2023-04-25T21:49:53;8.20;99.90
31619;DHT22;18230;51.502;7.108;2023-04-25T21:54:54;8.10;99.90
31619;DHT22;18230;51.502;7.108;2023-04-25T21:59:55;7.90;99.90
31619;DHT22;18230;51.502;7.108;2023-04-25T22:04:56;7.80;99.90
31619;DHT22;18230;51.502;7.108;2023-04-25T22:09:57;7.70;99.90
31619;DHT22;18230;51.502;7.108;2023-04-25T22:14:57;7.60;99.90
31619;DHT22;18230;51.502;7.108;2023-04-25T22:19:59;7.50;99.90
31619;DHT22;18230;51.502;7.108;2023-04-25T22:25:00;7.50;99.90
31619;DHT22;18230;51.502;7.108;2023-04-25T22:30:01;7.30;99.90
31619;DHT22;18230;51.502;7.108;2023-04-25T22:35:06;7.10;99.90
31619;DHT22;18230;51.502;7.108;2023-04-25T22:40:07;7.00;99.90
31619;DHT22;18230;51.502;7.108;2023-04-25T22:45:09;6.90;99.90
31619;DHT22;18230;51.502;7.108;2023-04-25T22:50:10;6.80;99.90
31619;DHT22;18230;51.502;7.108;2023-04-25T22:55:15;6.80;99.90
31619;DHT22;18230;51.502;7.108;2023-04-25T23:00:16;6.70;99.90
31619;DHT22;18230;51.502;7.108;2023-04-25T23:05:21;6.60;99.90
31619;DHT22;18230;51.502;7.108;2023-04-25T23:10:24;6.60;99.90
31619;DHT22;18230;51.502;7.108;2023-04-25T23:15:25;6.70;99.90
31619;DHT22;18230;51.502;7.108;2023-04-25T23:20:27;6.70;99.90
31619;DHT22;18230;51.502;7.108;2023-04-25T23:25:27;6.70;99.90
31619;DHT22;18230;51.502;7.108;2023-04-25T23:30:28;6.70;99.90
31619;DHT22;18230;51.502;7.108;2023-04-25T23:35:29;6.70;99.90
31619;DHT22;18230;51.502;7.108;2023-04-25T23:40:30;6.80;99.90
31619;DHT22;18230;51.502;7.108;2023-04-25T23:45:31;6.70;99.90
31619;DHT22;18230;51.502;7.108;2023-04-25T23:50:31;6.60;99.90
31619;DHT22;18230;51.502;7.108;2023-04-25T23:55:32;6.50;99.90
